sensor_id;sensor_type;location;lat;lon;timestamp;temperature;humidity
7307;DHT22;3694;48.732;9.248;2023-09-12T00:01:16;16.50;99.90
7307;DHT22;3694;48.732;9.248;2023-09-12T00:03:41;16.40;99.90
7307;DHT22;3694;48.732;9.248;2023-09-12T00:06:07;16.30;99.90
7307;DHT22;3694;48.732;9.248;2023-09-12T00:08:32;16.20;99.90
7307;DHT22;3694;48.732;9.248;2023-09-12T00:11:02;16.30;99.90
7307;DHT22;3694;48.732;9.248;2023-09-12T00:13:28;16.30;99.90
7307;DHT22;3694;48.732;9.248;2023-09-12T00:15:53;16.40;99.90
7307;DHT22;3694;48.732;9.248;2023-09-12T00:18:19;16.50;99.90
7307;DHT22;3694;48.732;9.248;2023-09-12T00:20:45;16.60;99.90
7307;DHT22;3694;48.732;9.248;2023-09-12T00:23:10;16.50;99.90
7307;DHT22;3694;48.732;9.248;2023-09-12T00:25:36;16.60;99.90
7307;DHT22;3694;48.732;9.248;2023-09-12T00:28:02;16.60;99.90
7307;DHT22;3694;48.732;9.248;2023-09-12T00:30:27;16.50;99.90
7307;DHT22;3694;48.732;9.248;2023-09-12T00:32:53;16.50;99.90
7307;DHT22;3694;48.732;9.248;2023-09-12T00:35:18;16.50;99.90
7307;DHT22;3694;48.732;9.248;2023-09-12T00:37:44;16.50;99.90
7307;DHT22;3694;48.732;9.248;2023-09-12T00:40:10;16.40;99.90
7307;DHT22;3694;48.732;9.248;2023-09-12T00:42:35;16.40;99.90
7307;DHT22;3694;48.732;9.248;2023-09-12T00:45:01;16.40;99.90
7307;DHT22;3694;48.732;9.248;2023-09-12T00:47:27;16.40;99.90
7307;DHT22;3694;48.732;9.248;2023-09-12T00:49:55;16.50;99.90
7307;DHT22;3694;48.732;9.248;2023-09-12T00:52:23;16.50;99.90
7307;DHT22;3694;48.732;9.248;2023-09-12T00:54:50;16.40;99.90
7307;DHT22;3694;48.732;9.248;2023-09-12T00:57:15;16.40;99.90
7307;DHT22;3694;48.732;9.248;2023-09-12T00:59:41;16.30;99.90
7307;DHT22;3694;48.732;9.248;2023-09-12T01:02:07;16.30;99.90
7307;DHT22;3694;48.732;9.248;2023-09-12T01:04:33;16.30;99.90
7307;DHT22;3694;48.732;9.248;2023-09-12T01:06:59;16.30;99.90
7307;DHT22;3694;48.732;9.248;2023-09-12T01:09:25;16.30;99.90
7307;DHT22;3694;48.732;9.248;2023-09-12T01:11:50;16.50;99.90
7307;DHT22;3694;48.732;9.248;2023-09-12T01:14:16;16.20;99.90
7307;DHT22;3694;48.732;9.248;2023-09-12T01:16:41;16.20;99.90
7307;DHT22;3694;48.732;9.248;2023-09-12T01:19:08;16.10;99.90
7307;DHT22;3694;48.732;9.248;2023-09-12T01:27:27;15.70;99.90
7307;DHT22;3694;48.732;9.248;2023-09-12T01:30:02;15.60;99.90
7307;DHT22;3694;48.732;9.248;2023-09-12T01:32:32;15.60;99.90
7307;DHT22;3694;48.732;9.248;2023-09-12T01:34:59;15.70;99.90
7307;DHT22;3694;48.732;9.248;2023-09-12T01:37:24;15.80;99.90
7307;DHT22;3694;48.732;9.248;2023-09-12T01:39:50;16.00;99.90
7307;DHT22;3694;48.732;9.248;2023-09-12T01:42:17;16.00;99.90
7307;DHT22;3694;48.732;9.248;2023-09-12T01:44:45;16.10;99.90
7307;DHT22;3694;48.732;9.248;2023-09-12T01:47:11;16.00;99.90
7307;DHT22;3694;48.732;9.248;2023-09-12T01:49:42;16.10;99.90
7307;DHT22;3694;48.732;9.248;2023-09-12T01:52:08;16.00;99.90
7307;DHT22;3694;48.732;9.248;2023-09-12T01:54:34;16.00;99.90
7307;DHT22;3694;48.732;9.248;2023-09-12T01:57:02;16.10;99.90
7307;DHT22;3694;48.732;9.248;2023-09-12T01:59:28;16.10;99.90
7307;DHT22;3694;48.732;9.248;2023-09-12T02:01:55;16.10;99.90
7307;DHT22;3694;48.732;9.248;2023-09-12T02:04:20;16.00;99.90
7307;DHT22;3694;48.732;9.248;2023-09-12T02:06:46;16.00;99.90
7307;DHT22;3694;48.732;9.248;2023-09-12T02:09:12;15.90;99.90
7307;DHT22;3694;48.732;9.248;2023-09-12T02:11:37;15.90;99.90
7307;DHT22;3694;48.732;9.248;2023-09-12T02:14:03;15.90;99.90
7307;DHT22;3694;48.732;9.248;2023-09-12T02:16:30;15.90;99.90
7307;DHT22;3694;48.732;9.248;2023-09-12T02:18:56;15.80;99.90
7307;DHT22;3694;48.732;9.248;2023-09-12T02:21:22;15.70;99.90
7307;DHT22;3694;48.732;9.248;2023-09-12T02:23:47;15.60;99.90
7307;DHT22;3694;48.732;9.248;2023-09-12T02:26:13;15.70;99.90
7307;DHT22;3694;48.732;9.248;2023-09-12T02:28:38;15.60;99.90
7307;DHT22;3694;48.732;9.248;2023-09-12T02:31:10;15.70;99.90
7307;DHT22;3694;48.732;9.248;2023-09-12T02:33:37;15.70;99.90
7307;DHT22;3694;48.732;9.248;2023-09-12T02:36:04;15.70;99.90
7307;DHT22;3694;48.732;9.248;2023-09-12T02:38:29;15.70;99.90
7307;DHT22;3694;48.732;9.248;2023-09-12T02:40:55;15.70;99.90
7307;DHT22;3694;48.732;9.248;2023-09-12T02:43:21;15.70;99.90
7307;DHT22;3694;48.732;9.248;2023-09-12T02:45:46;15.60;99.90
7307;DHT22;3694;48.732;9.248;2023-09-12T02:48:12;15.70;99.90
7307;DHT22;3694;48.732;9.248;2023-09-12T02:50:38;15.70;99.90
7307;DHT22;3694;48.732;9.248;2023-09-12T02:53:03;15.70;99.90
7307;DHT22;3694;48.732;9.248;2023-09-12T02:55:29;15.70;99.90
7307;DHT22;3694;48.732;9.248;2023-09-12T02:57:54;15.80;99.90
7307;DHT22;3694;48.732;9.248;2023-09-12T03:00:21;15.80;99.90
7307;DHT22;3694;48.732;9.248;2023-09-12T03:02:47;15.70;99.90
7307;DHT22;3694;48.732;9.248;2023-09-12T03:05:13;15.70;99.90
7307;DHT22;3694;48.732;9.248;2023-09-12T03:07:38;15.70;99.90
7307;DHT22;3694;48.732;9.248;2023-09-12T03:10:04;15.70;99.90
7307;DHT22;3694;48.732;9.248;2023-09-12T03:12:30;15.70;99.90
7307;DHT22;3694;48.732;9.248;2023-09-12T03:14:56;15.90;99.90
7307;DHT22;3694;48.732;9.248;2023-09-12T03:17:22;15.60;99.90
7307;DHT22;3694;48.732;9.248;2023-09-12T03:19:47;15.60;99.90
7307;DHT22;3694;48.732;9.248;2023-09-12T03:22:13;15.60;99.90
7307;DHT22;3694;48.732;9.248;2023-09-12T03:24:39;15.60;99.90
7307;DHT22;3694;48.732;9.248;2023-09-12T03:27:04;15.50;99.90
7307;DHT22;3694;48.732;9.248;2023-09-12T03:29:30;15.50;99.90
7307;DHT22;3694;48.732;9.248;2023-09-12T03:31:56;15.40;99.90
7307;DHT22;3694;48.732;9.248;2023-09-12T03:34:21;15.40;99.90
7307;DHT22;3694;48.732;9.248;2023-09-12T03:36:47;15.30;99.90
7307;DHT22;3694;48.732;9.248;2023-09-12T03:39:12;15.30;99.90
7307;DHT22;3694;48.732;9.248;2023-09-12T03:41:39;15.30;99.90
7307;DHT22;3694;48.732;9.248;2023-09-12T03:44:05;15.30;99.90
7307;DHT22;3694;48.732;9.248;2023-09-12T03:46:30;15.20;99.90
7307;DHT22;3694;48.732;9.248;2023-09-12T03:48:56;15.20;99.90
7307;DHT22;3694;48.732;9.248;2023-09-12T03:51:21;15.20;99.90
7307;DHT22;3694;48.732;9.248;2023-09-12T03:53:47;15.20;99.90
7307;DHT22;3694;48.732;9.248;2023-09-12T03:56:15;15.00;99.90
7307;DHT22;3694;48.732;9.248;2023-09-12T03:58:41;14.90;99.90
7307;DHT22;3694;48.732;9.248;2023-09-12T04:01:07;14.80;99.90
7307;DHT22;3694;48.732;9.248;2023-09-12T04:03:32;14.80;99.90
7307;DHT22;3694;48.732;9.248;2023-09-12T04:05:58;14.80;99.90
7307;DHT22;3694;48.732;9.248;2023-09-12T04:08:24;14.70;99.90
7307;DHT22;3694;48.732;9.248;2023-09-12T04:10:49;14.80;99.90
7307;DHT22;3694;48.732;9.248;2023-09-12T04:13:15;14.80;99.90
7307;DHT22;3694;48.732;9.248;2023-09-12T04:15:40;14.90;99.90
7307;DHT22;3694;48.732;9.248;2023-09-12T04:18:06;15.10;99.90
7307;DHT22;3694;48.732;9.248;2023-09-12T04:20:32;15.10;99.90
7307;DHT22;3694;48.732;9.248;2023-09-12T04:23:00;15.00;99.90
7307;DHT22;3694;48.732;9.248;2023-09-12T04:25:25;15.10;99.90
7307;DHT22;3694;48.732;9.248;2023-09-12T04:27:52;15.10;99.90
7307;DHT22;3694;48.732;9.248;2023-09-12T04:30:17;15.10;99.90
7307;DHT22;3694;48.732;9.248;2023-09-12T04:32:43;15.20;99.90
7307;DHT22;3694;48.732;9.248;2023-09-12T04:35:08;15.20;99.90
7307;DHT22;3694;48.732;9.248;2023-09-12T04:37:34;15.20;99.90
7307;DHT22;3694;48.732;9.248;2023-09-12T04:40:00;15.20;99.90
7307;DHT22;3694;48.732;9.248;2023-09-12T04:42:26;15.20;99.90
7307;DHT22;3694;48.732;9.248;2023-09-12T04:44:51;15.10;99.90
7307;DHT22;3694;48.732;9.248;2023-09-12T04:47:17;15.10;99.90
7307;DHT22;3694;48.732;9.248;2023-09-12T04:49:44;15.10;99.90
7307;DHT22;3694;48.732;9.248;2023-09-12T04:52:09;15.10;99.90
7307;DHT22;3694;48.732;9.248;2023-09-12T04:54:35;15.10;99.90
7307;DHT22;3694;48.732;9.248;2023-09-12T04:57:01;15.20;99.90
7307;DHT22;3694;48.732;9.248;2023-09-12T04:59:26;15.10;99.90
7307;DHT22;3694;48.732;9.248;2023-09-12T05:01:52;15.10;99.90
7307;DHT22;3694;48.732;9.248;2023-09-12T05:04:17;15.20;99.90
7307;DHT22;3694;48.732;9.248;2023-09-12T05:06:43;15.10;99.90
7307;DHT22;3694;48.732;9.248;2023-09-12T05:09:09;15.20;99.90
7307;DHT22;3694;48.732;9.248;2023-09-12T05:11:36;15.20;99.90
7307;DHT22;3694;48.732;9.248;2023-09-12T05:14:01;15.30;99.90
7307;DHT22;3694;48.732;9.248;2023-09-12T05:16:29;15.40;99.90
7307;DHT22;3694;48.732;9.248;2023-09-12T05:18:54;15.40;99.90
7307;DHT22;3694;48.732;9.248;2023-09-12T05:21:20;15.40;99.90
7307;DHT22;3694;48.732;9.248;2023-09-12T05:23:46;15.40;99.90
7307;DHT22;3694;48.732;9.248;2023-09-12T05:26:11;15.50;99.90
7307;DHT22;3694;48.732;9.248;2023-09-12T05:28:37;15.60;99.90
7307;DHT22;3694;48.732;9.248;2023-09-12T05:31:03;15.60;99.90
7307;DHT22;3694;48.732;9.248;2023-09-12T05:33:28;15.60;99.90
7307;DHT22;3694;48.732;9.248;2023-09-12T05:35:54;15.70;99.90
7307;DHT22;3694;48.732;9.248;2023-09-12T05:38:19;15.80;99.90
7307;DHT22;3694;48.732;9.248;2023-09-12T05:40:45;15.90;99.90
7307;DHT22;3694;48.732;9.248;2023-09-12T05:43:11;16.00;99.90
7307;DHT22;3694;48.732;9.248;2023-09-12T05:45:37;16.10;99.90
7307;DHT22;3694;48.732;9.248;2023-09-12T05:48:03;16.40;99.90
7307;DHT22;3694;48.732;9.248;2023-09-12T05:50:29;16.50;99.90
7307;DHT22;3694;48.732;9.248;2023-09-12T05:52:55;16.70;99.90
7307;DHT22;3694;48.732;9.248;2023-09-12T05:55:21;16.90;99.90
7307;DHT22;3694;48.732;9.248;2023-09-12T05:57:48;17.10;99.90
7307;DHT22;3694;48.732;9.248;2023-09-12T06:00:17;17.40;99.90
7307;DHT22;3694;48.732;9.248;2023-09-12T06:02:43;17.40;99.90
7307;DHT22;3694;48.732;9.248;2023-09-12T06:05:08;17.80;99.90
7307;DHT22;3694;48.732;9.248;2023-09-12T06:07:34;18.00;99.90
7307;DHT22;3694;48.732;9.248;2023-09-12T06:10:01;18.30;99.90
7307;DHT22;3694;48.732;9.248;2023-09-12T06:12:26;18.70;99.90
7307;DHT22;3694;48.732;9.248;2023-09-12T06:14:52;18.80;99.90
7307;DHT22;3694;48.732;9.248;2023-09-12T06:17:19;19.20;99.90
7307;DHT22;3694;48.732;9.248;2023-09-12T06:19:45;19.30;99.90
7307;DHT22;3694;48.732;9.248;2023-09-12T06:22:10;19.50;99.90
7307;DHT22;3694;48.732;9.248;2023-09-12T06:24:36;19.90;99.90
7307;DHT22;3694;48.732;9.248;2023-09-12T06:27:01;20.10;99.90
7307;DHT22;3694;48.732;9.248;2023-09-12T06:29:27;20.40;99.90
7307;DHT22;3694;48.732;9.248;2023-09-12T06:31:52;20.60;99.90
7307;DHT22;3694;48.732;9.248;2023-09-12T06:34:20;20.60;99.90
7307;DHT22;3694;48.732;9.248;2023-09-12T06:36:45;20.90;99.90
7307;DHT22;3694;48.732;9.248;2023-09-12T06:39:11;20.90;99.90
7307;DHT22;3694;48.732;9.248;2023-09-12T06:41:36;21.20;99.90
7307;DHT22;3694;48.732;9.248;2023-09-12T06:44:02;21.10;99.90
7307;DHT22;3694;48.732;9.248;2023-09-12T06:46:29;21.10;99.90
7307;DHT22;3694;48.732;9.248;2023-09-12T06:48:55;21.10;99.90
7307;DHT22;3694;48.732;9.248;2023-09-12T06:51:23;21.10;99.90
7307;DHT22;3694;48.732;9.248;2023-09-12T06:53:50;21.00;99.90
7307;DHT22;3694;48.732;9.248;2023-09-12T06:56:16;21.10;99.90
7307;DHT22;3694;48.732;9.248;2023-09-12T06:58:42;21.30;99.90
7307;DHT22;3694;48.732;9.248;2023-09-12T07:01:07;21.40;99.90
7307;DHT22;3694;48.732;9.248;2023-09-12T07:03:34;21.50;99.90
7307;DHT22;3694;48.732;9.248;2023-09-12T07:06:00;21.60;99.90
7307;DHT22;3694;48.732;9.248;2023-09-12T07:08:26;21.70;99.90
7307;DHT22;3694;48.732;9.248;2023-09-12T07:10:51;21.70;99.90
7307;DHT22;3694;48.732;9.248;2023-09-12T07:13:23;21.90;99.90
7307;DHT22;3694;48.732;9.248;2023-09-12T07:15:50;21.90;99.90
7307;DHT22;3694;48.732;9.248;2023-09-12T07:18:16;22.30;99.90
7307;DHT22;3694;48.732;9.248;2023-09-12T07:20:42;22.60;99.90
7307;DHT22;3694;48.732;9.248;2023-09-12T07:23:07;22.70;99.90
7307;DHT22;3694;48.732;9.248;2023-09-12T07:25:40;22.90;99.90
7307;DHT22;3694;48.732;9.248;2023-09-12T07:28:08;23.10;99.90
7307;DHT22;3694;48.732;9.248;2023-09-12T07:30:34;23.20;99.90
7307;DHT22;3694;48.732;9.248;2023-09-12T07:33:00;23.70;99.90
7307;DHT22;3694;48.732;9.248;2023-09-12T07:35:25;24.30;99.50
7307;DHT22;3694;48.732;9.248;2023-09-12T07:37:51;25.30;98.90
7307;DHT22;3694;48.732;9.248;2023-09-12T07:40:16;26.20;97.70
7307;DHT22;3694;48.732;9.248;2023-09-12T07:42:42;26.90;96.50
7307;DHT22;3694;48.732;9.248;2023-09-12T07:45:08;27.00;95.60
7307;DHT22;3694;48.732;9.248;2023-09-12T07:47:34;26.80;95.50
7307;DHT22;3694;48.732;9.248;2023-09-12T07:50:00;26.30;95.40
7307;DHT22;3694;48.732;9.248;2023-09-12T07:52:29;26.20;95.30
7307;DHT22;3694;48.732;9.248;2023-09-12T07:55:00;25.70;95.70
7307;DHT22;3694;48.732;9.248;2023-09-12T07:57:25;25.30;96.20
7307;DHT22;3694;48.732;9.248;2023-09-12T07:59:51;25.10;96.80
7307;DHT22;3694;48.732;9.248;2023-09-12T08:02:16;25.20;97.20
7307;DHT22;3694;48.732;9.248;2023-09-12T08:04:42;25.50;96.60
7307;DHT22;3694;48.732;9.248;2023-09-12T08:07:07;25.60;96.80
7307;DHT22;3694;48.732;9.248;2023-09-12T08:09:53;25.60;96.80
7307;DHT22;3694;48.732;9.248;2023-09-12T08:12:22;25.70;97.10
7307;DHT22;3694;48.732;9.248;2023-09-12T08:14:47;25.80;97.00
7307;DHT22;3694;48.732;9.248;2023-09-12T08:17:14;25.80;97.00
7307;DHT22;3694;48.732;9.248;2023-09-12T08:19:40;26.30;97.00
7307;DHT22;3694;48.732;9.248;2023-09-12T08:22:07;27.10;96.90
7307;DHT22;3694;48.732;9.248;2023-09-12T08:24:33;27.80;96.50
7307;DHT22;3694;48.732;9.248;2023-09-12T08:26:59;28.00;95.30
7307;DHT22;3694;48.732;9.248;2023-09-12T08:29:25;28.00;95.50
7307;DHT22;3694;48.732;9.248;2023-09-12T08:31:50;27.70;95.30
7307;DHT22;3694;48.732;9.248;2023-09-12T08:34:16;27.40;95.60
7307;DHT22;3694;48.732;9.248;2023-09-12T08:36:41;27.10;95.80
7307;DHT22;3694;48.732;9.248;2023-09-12T08:39:14;26.40;95.80
7307;DHT22;3694;48.732;9.248;2023-09-12T08:41:39;26.10;96.50
7307;DHT22;3694;48.732;9.248;2023-09-12T08:44:05;26.00;96.40
7307;DHT22;3694;48.732;9.248;2023-09-12T08:46:32;26.30;96.70
7307;DHT22;3694;48.732;9.248;2023-09-12T08:48:58;26.60;96.30
7307;DHT22;3694;48.732;9.248;2023-09-12T08:51:24;27.40;95.70
7307;DHT22;3694;48.732;9.248;2023-09-12T08:53:50;28.10;94.90
7307;DHT22;3694;48.732;9.248;2023-09-12T08:56:17;28.30;95.10
7307;DHT22;3694;48.732;9.248;2023-09-12T08:58:43;28.50;94.50
7307;DHT22;3694;48.732;9.248;2023-09-12T09:01:10;28.70;94.60
7307;DHT22;3694;48.732;9.248;2023-09-12T09:03:39;28.70;94.10
7307;DHT22;3694;48.732;9.248;2023-09-12T09:06:06;28.50;94.70
7307;DHT22;3694;48.732;9.248;2023-09-12T09:08:34;28.40;94.30
7307;DHT22;3694;48.732;9.248;2023-09-12T09:11:00;28.60;94.00
7307;DHT22;3694;48.732;9.248;2023-09-12T09:13:34;28.80;94.00
7307;DHT22;3694;48.732;9.248;2023-09-12T09:16:29;28.80;93.80
7307;DHT22;3694;48.732;9.248;2023-09-12T09:19:00;29.20;93.30
7307;DHT22;3694;48.732;9.248;2023-09-12T09:21:28;29.40;93.60
7307;DHT22;3694;48.732;9.248;2023-09-12T09:24:00;29.40;93.70
7307;DHT22;3694;48.732;9.248;2023-09-12T09:26:41;29.30;93.90
7307;DHT22;3694;48.732;9.248;2023-09-12T09:29:09;29.60;92.80
7307;DHT22;3694;48.732;9.248;2023-09-12T09:31:38;29.80;93.40
7307;DHT22;3694;48.732;9.248;2023-09-12T09:34:14;29.60;93.60
7307;DHT22;3694;48.732;9.248;2023-09-12T09:36:43;29.30;94.30
7307;DHT22;3694;48.732;9.248;2023-09-12T09:39:12;29.40;93.00
7307;DHT22;3694;48.732;9.248;2023-09-12T09:41:38;29.20;93.00
7307;DHT22;3694;48.732;9.248;2023-09-12T09:44:06;29.30;94.00
7307;DHT22;3694;48.732;9.248;2023-09-12T09:46:32;29.10;93.40
7307;DHT22;3694;48.732;9.248;2023-09-12T09:48:58;29.10;93.70
7307;DHT22;3694;48.732;9.248;2023-09-12T09:51:25;29.00;93.30
7307;DHT22;3694;48.732;9.248;2023-09-12T09:53:52;29.20;93.10
7307;DHT22;3694;48.732;9.248;2023-09-12T09:56:18;29.10;93.10
7307;DHT22;3694;48.732;9.248;2023-09-12T09:58:47;29.30;93.40
7307;DHT22;3694;48.732;9.248;2023-09-12T10:01:19;29.40;93.40
7307;DHT22;3694;48.732;9.248;2023-09-12T10:03:51;29.60;93.50
7307;DHT22;3694;48.732;9.248;2023-09-12T10:06:17;29.60;93.00
7307;DHT22;3694;48.732;9.248;2023-09-12T10:08:45;29.50;93.00
7307;DHT22;3694;48.732;9.248;2023-09-12T10:11:14;29.60;94.10
7307;DHT22;3694;48.732;9.248;2023-09-12T10:13:54;29.30;93.30
7307;DHT22;3694;48.732;9.248;2023-09-12T10:16:30;29.30;93.20
7307;DHT22;3694;48.732;9.248;2023-09-12T10:19:16;29.40;93.20
7307;DHT22;3694;48.732;9.248;2023-09-12T10:22:46;29.40;93.00
7307;DHT22;3694;48.732;9.248;2023-09-12T10:24:51;29.30;92.90
7307;DHT22;3694;48.732;9.248;2023-09-12T10:27:19;29.30;91.90
7307;DHT22;3694;48.732;9.248;2023-09-12T10:29:45;29.20;91.80
7307;DHT22;3694;48.732;9.248;2023-09-12T10:32:14;29.30;91.70
7307;DHT22;3694;48.732;9.248;2023-09-12T10:34:40;29.50;91.70
7307;DHT22;3694;48.732;9.248;2023-09-12T10:37:12;29.80;91.80
7307;DHT22;3694;48.732;9.248;2023-09-12T10:39:40;30.00;91.30
7307;DHT22;3694;48.732;9.248;2023-09-12T10:42:08;30.20;91.10
7307;DHT22;3694;48.732;9.248;2023-09-12T10:44:35;30.40;91.00
7307;DHT22;3694;48.732;9.248;2023-09-12T10:47:01;30.60;91.40
7307;DHT22;3694;48.732;9.248;2023-09-12T10:49:28;30.80;90.60
7307;DHT22;3694;48.732;9.248;2023-09-12T10:51:54;31.00;90.40
7307;DHT22;3694;48.732;9.248;2023-09-12T10:54:36;31.00;90.60
7307;DHT22;3694;48.732;9.248;2023-09-12T10:57:09;31.00;91.00
7307;DHT22;3694;48.732;9.248;2023-09-12T11:02:39;31.00;89.10
7307;DHT22;3694;48.732;9.248;2023-09-12T11:07:58;31.20;88.70
7307;DHT22;3694;48.732;9.248;2023-09-12T11:10:25;31.20;86.80
7307;DHT22;3694;48.732;9.248;2023-09-12T11:12:55;31.30;89.60
7307;DHT22;3694;48.732;9.248;2023-09-12T11:15:26;31.30;88.90
7307;DHT22;3694;48.732;9.248;2023-09-12T11:18:04;31.00;87.40
7307;DHT22;3694;48.732;9.248;2023-09-12T11:20:52;30.80;87.50
7307;DHT22;3694;48.732;9.248;2023-09-12T11:23:19;31.00;89.80
7307;DHT22;3694;48.732;9.248;2023-09-12T11:25:45;31.10;90.80
7307;DHT22;3694;48.732;9.248;2023-09-12T11:28:10;31.10;89.90
7307;DHT22;3694;48.732;9.248;2023-09-12T11:30:36;31.00;88.30
7307;DHT22;3694;48.732;9.248;2023-09-12T11:33:05;30.90;88.60
7307;DHT22;3694;48.732;9.248;2023-09-12T11:35:38;31.00;86.70
7307;DHT22;3694;48.732;9.248;2023-09-12T11:38:09;31.20;88.50
7307;DHT22;3694;48.732;9.248;2023-09-12T11:43:01;31.40;85.80
7307;DHT22;3694;48.732;9.248;2023-09-12T11:45:27;31.30;87.50
7307;DHT22;3694;48.732;9.248;2023-09-12T11:47:54;31.40;89.20
7307;DHT22;3694;48.732;9.248;2023-09-12T11:50:27;31.40;88.30
7307;DHT22;3694;48.732;9.248;2023-09-12T11:53:11;31.40;84.70
7307;DHT22;3694;48.732;9.248;2023-09-12T11:55:45;31.50;87.60
7307;DHT22;3694;48.732;9.248;2023-09-12T11:58:12;31.30;86.40
7307;DHT22;3694;48.732;9.248;2023-09-12T12:00:44;31.30;86.90
7307;DHT22;3694;48.732;9.248;2023-09-12T12:03:11;31.10;85.80
7307;DHT22;3694;48.732;9.248;2023-09-12T12:05:37;31.00;86.40
7307;DHT22;3694;48.732;9.248;2023-09-12T12:08:03;31.00;82.80
7307;DHT22;3694;48.732;9.248;2023-09-12T12:10:29;31.00;83.60
7307;DHT22;3694;48.732;9.248;2023-09-12T12:12:55;31.20;83.20
7307;DHT22;3694;48.732;9.248;2023-09-12T12:15:21;31.40;83.60
7307;DHT22;3694;48.732;9.248;2023-09-12T12:17:47;31.60;81.50
7307;DHT22;3694;48.732;9.248;2023-09-12T12:20:12;31.80;81.70
7307;DHT22;3694;48.732;9.248;2023-09-12T12:22:39;31.80;80.60
7307;DHT22;3694;48.732;9.248;2023-09-12T12:25:09;32.00;80.40
7307;DHT22;3694;48.732;9.248;2023-09-12T12:27:39;32.30;78.50
7307;DHT22;3694;48.732;9.248;2023-09-12T12:30:09;32.40;79.90
7307;DHT22;3694;48.732;9.248;2023-09-12T12:32:46;32.20;80.10
7307;DHT22;3694;48.732;9.248;2023-09-12T12:35:22;32.00;80.90
7307;DHT22;3694;48.732;9.248;2023-09-12T12:37:49;31.70;79.60
7307;DHT22;3694;48.732;9.248;2023-09-12T12:40:15;32.00;78.40
7307;DHT22;3694;48.732;9.248;2023-09-12T12:42:43;32.10;78.00
7307;DHT22;3694;48.732;9.248;2023-09-12T12:45:16;32.00;80.60
7307;DHT22;3694;48.732;9.248;2023-09-12T12:47:42;31.90;76.90
7307;DHT22;3694;48.732;9.248;2023-09-12T12:50:15;31.80;76.30
7307;DHT22;3694;48.732;9.248;2023-09-12T12:52:41;31.80;77.60
7307;DHT22;3694;48.732;9.248;2023-09-12T12:55:10;32.10;79.90
7307;DHT22;3694;48.732;9.248;2023-09-12T12:57:40;32.00;75.90
7307;DHT22;3694;48.732;9.248;2023-09-12T13:00:10;32.00;79.30
7307;DHT22;3694;48.732;9.248;2023-09-12T13:02:39;32.10;76.20
7307;DHT22;3694;48.732;9.248;2023-09-12T13:05:19;32.20;75.60
7307;DHT22;3694;48.732;9.248;2023-09-12T13:07:44;32.30;73.00
7307;DHT22;3694;48.732;9.248;2023-09-12T13:10:10;32.30;75.10
7307;DHT22;3694;48.732;9.248;2023-09-12T13:12:36;32.30;75.00
7307;DHT22;3694;48.732;9.248;2023-09-12T13:15:06;32.30;74.60
7307;DHT22;3694;48.732;9.248;2023-09-12T13:17:32;32.50;73.60
7307;DHT22;3694;48.732;9.248;2023-09-12T13:19:58;32.40;72.50
7307;DHT22;3694;48.732;9.248;2023-09-12T13:22:23;32.60;74.40
7307;DHT22;3694;48.732;9.248;2023-09-12T13:24:49;32.70;75.00
7307;DHT22;3694;48.732;9.248;2023-09-12T13:27:14;32.70;77.30
7307;DHT22;3694;48.732;9.248;2023-09-12T13:29:40;32.70;74.90
7307;DHT22;3694;48.732;9.248;2023-09-12T13:32:06;33.10;75.50
7307;DHT22;3694;48.732;9.248;2023-09-12T13:34:31;33.00;74.20
7307;DHT22;3694;48.732;9.248;2023-09-12T13:36:57;32.70;72.00
7307;DHT22;3694;48.732;9.248;2023-09-12T13:39:24;32.80;73.50
7307;DHT22;3694;48.732;9.248;2023-09-12T13:41:49;32.80;73.10
7307;DHT22;3694;48.732;9.248;2023-09-12T13:44:16;32.60;72.20
7307;DHT22;3694;48.732;9.248;2023-09-12T13:46:41;32.20;73.10
7307;DHT22;3694;48.732;9.248;2023-09-12T13:49:09;32.00;71.90
7307;DHT22;3694;48.732;9.248;2023-09-12T13:51:35;31.70;73.10
7307;DHT22;3694;48.732;9.248;2023-09-12T13:54:01;31.30;72.70
7307;DHT22;3694;48.732;9.248;2023-09-12T13:56:27;30.70;73.90
7307;DHT22;3694;48.732;9.248;2023-09-12T13:58:54;29.90;74.30
7307;DHT22;3694;48.732;9.248;2023-09-12T14:01:20;29.40;76.20
7307;DHT22;3694;48.732;9.248;2023-09-12T14:03:46;29.10;77.60
7307;DHT22;3694;48.732;9.248;2023-09-12T14:06:12;29.10;76.70
7307;DHT22;3694;48.732;9.248;2023-09-12T14:08:37;29.40;78.20
7307;DHT22;3694;48.732;9.248;2023-09-12T14:11:03;29.80;77.20
7307;DHT22;3694;48.732;9.248;2023-09-12T14:13:28;29.90;76.60
7307;DHT22;3694;48.732;9.248;2023-09-12T14:15:54;29.90;77.70
7307;DHT22;3694;48.732;9.248;2023-09-12T14:18:19;30.00;78.20
7307;DHT22;3694;48.732;9.248;2023-09-12T14:20:46;30.10;76.40
7307;DHT22;3694;48.732;9.248;2023-09-12T14:23:12;29.90;77.90
7307;DHT22;3694;48.732;9.248;2023-09-12T14:26:02;29.30;77.20
7307;DHT22;3694;48.732;9.248;2023-09-12T14:28:28;28.60;77.50
7307;DHT22;3694;48.732;9.248;2023-09-12T14:30:54;28.20;78.90
7307;DHT22;3694;48.732;9.248;2023-09-12T14:33:20;27.80;79.10
7307;DHT22;3694;48.732;9.248;2023-09-12T14:35:47;27.50;79.60
7307;DHT22;3694;48.732;9.248;2023-09-12T14:38:12;27.30;80.30
7307;DHT22;3694;48.732;9.248;2023-09-12T14:40:38;27.20;80.90
7307;DHT22;3694;48.732;9.248;2023-09-12T14:43:05;27.10;81.90
7307;DHT22;3694;48.732;9.248;2023-09-12T14:45:30;27.10;81.40
7307;DHT22;3694;48.732;9.248;2023-09-12T14:47:56;27.10;80.70
7307;DHT22;3694;48.732;9.248;2023-09-12T14:50:23;27.00;80.50
7307;DHT22;3694;48.732;9.248;2023-09-12T14:52:55;27.10;81.60
7307;DHT22;3694;48.732;9.248;2023-09-12T14:55:20;27.10;81.10
7307;DHT22;3694;48.732;9.248;2023-09-12T14:57:46;27.10;79.90
7307;DHT22;3694;48.732;9.248;2023-09-12T15:00:11;27.20;81.90
7307;DHT22;3694;48.732;9.248;2023-09-12T15:02:37;27.20;81.50
7307;DHT22;3694;48.732;9.248;2023-09-12T15:05:03;27.20;82.60
7307;DHT22;3694;48.732;9.248;2023-09-12T15:07:29;27.30;81.80
7307;DHT22;3694;48.732;9.248;2023-09-12T15:09:56;27.40;82.40
7307;DHT22;3694;48.732;9.248;2023-09-12T15:12:21;27.40;82.50
7307;DHT22;3694;48.732;9.248;2023-09-12T15:14:47;27.40;84.20
7307;DHT22;3694;48.732;9.248;2023-09-12T15:17:13;27.50;83.00
7307;DHT22;3694;48.732;9.248;2023-09-12T15:19:38;27.70;84.40
7307;DHT22;3694;48.732;9.248;2023-09-12T15:22:04;27.70;85.70
7307;DHT22;3694;48.732;9.248;2023-09-12T15:24:29;27.70;85.00
7307;DHT22;3694;48.732;9.248;2023-09-12T15:26:55;27.60;84.40
7307;DHT22;3694;48.732;9.248;2023-09-12T15:29:21;27.70;85.80
7307;DHT22;3694;48.732;9.248;2023-09-12T15:31:46;27.70;86.40
7307;DHT22;3694;48.732;9.248;2023-09-12T15:34:12;27.70;86.50
7307;DHT22;3694;48.732;9.248;2023-09-12T15:36:46;27.50;86.40
7307;DHT22;3694;48.732;9.248;2023-09-12T15:39:12;27.40;86.80
7307;DHT22;3694;48.732;9.248;2023-09-12T15:41:38;27.20;88.10
7307;DHT22;3694;48.732;9.248;2023-09-12T15:44:04;27.10;87.40
7307;DHT22;3694;48.732;9.248;2023-09-12T15:46:30;27.00;87.70
7307;DHT22;3694;48.732;9.248;2023-09-12T15:48:55;26.80;88.80
7307;DHT22;3694;48.732;9.248;2023-09-12T15:51:21;26.50;88.80
7307;DHT22;3694;48.732;9.248;2023-09-12T15:53:47;26.40;89.30
7307;DHT22;3694;48.732;9.248;2023-09-12T15:56:13;26.20;90.60
7307;DHT22;3694;48.732;9.248;2023-09-12T15:58:39;25.90;90.20
7307;DHT22;3694;48.732;9.248;2023-09-12T16:01:04;25.70;90.30
7307;DHT22;3694;48.732;9.248;2023-09-12T16:03:31;25.40;90.20
7307;DHT22;3694;48.732;9.248;2023-09-12T16:05:57;25.40;90.50
7307;DHT22;3694;48.732;9.248;2023-09-12T16:08:23;25.40;90.50
7307;DHT22;3694;48.732;9.248;2023-09-12T16:10:49;25.10;90.70
7307;DHT22;3694;48.732;9.248;2023-09-12T16:13:15;25.10;90.90
7307;DHT22;3694;48.732;9.248;2023-09-12T16:15:41;25.00;90.70